• Join FlightAware (Why Join?)
  • Login
  • US Flag 
11:17PM EDT


 

Airport Tracker/Info


-or-


 

Live Flight TrackerFlight Track Log ✈ UAL5900 ✈ 13-Mar-2014 ✈ KSYR - KORD

Flight Track Log - Related Links

Times and Time Zones

All times are in EDT time to prevent confusion due to time zone crossing. See the UAL5900 flight status page for this flight to view local times or setup timezone preferences in your user account.

Time Position Orientation Groundspeed Altitude Reporting Facility
EDT Latitude Longitude Course Direction KTS MPH feet Rate Location/Type
05:37PM 43.1081 -76.1306 286° West 134 154 1,500  Level Boston Center
05:37PM 43.1069 -76.1622 267° West 144 166 3,100 2,100 Climbing Boston Center
05:38PM 43.1114 -76.2367 275° West 208 239 4,900 1,560 Climbing Boston Center
05:39PM 43.1181 -76.2444 320° Northwest 205 236 5,200 2,100 Climbing Boston Center
05:40PM 43.1525 -76.3108 305° West 216 249 7,700 2,460 Climbing Boston Center
05:41PM 43.1903 -76.4022 300° West 228 262 10,300 1,800 Climbing Boston Center
05:42PM 43.2386 -76.7186 286° West  Level FlightAware Approximate
05:42PM 43.2097 -76.4967 286° West 255 293 11,400  Level Boston Center
05:43PM 43.2281 -76.6081 283° West 294 338 12,500 1,140 Climbing Boston Center
05:44PM 43.2453 -76.7156 282° West 304 350 13,800 1,320 Climbing Boston Center
05:45PM 43.2650 -76.8322 283° West 313 360 15,300 1,440 Climbing Boston Center
05:46PM 43.2836 -76.9461 283° West 309 356 16,800 1,440 Climbing Boston Center
05:47PM 43.3019 -77.0592 283° West 306 352 18,300 1,620 Climbing Boston Center
05:48PM 43.3247 -77.1939 283° West 305 351 20,200 1,440 Climbing Boston Center
05:49PM 43.3447 -77.3058 284° West 304 350 21,300 960 Climbing Boston Center
05:50PM 43.3425 -77.4350 269° West 336 387 22,200 780 Climbing Boston Center
05:51PM 43.3381 -77.5683 267° West 349 402 23,000 1,020 Climbing Boston Center
05:52PM 43.3167 -77.7333 260° West 360 414 24,700 1,260 Climbing Toronto Center
05:53PM 43.3167 -77.8500 270° West 350 403 26,000 1,380 Climbing Toronto Center
05:54PM 43.3167 -77.9833 270° West 340 391 27,500 1,440 Climbing Toronto Center
05:55PM 43.3000 -78.1167 260° West 330 380 28,900 1,440 Climbing Toronto Center
05:56PM 43.3000 -78.2333 270° West 320 368 30,400 1,380 Climbing Toronto Center
05:57PM 43.2833 -78.3500 259° West 310 357 31,700 1,140 Climbing Toronto Center
05:58PM 43.2833 -78.4833 270° West 310 357 32,700 720 Climbing Toronto Center
05:59PM 43.3000 -78.6000 281° West 320 368 33,200 540 Climbing Toronto Center
06:00PM 43.2833 -78.7167 259° West 340 391 33,800 600 Climbing Toronto Center
06:01PM 43.2833 -78.8833 270° West 350 403 34,400 540 Climbing Toronto Center
06:02PM 43.2667 -79.0000 259° West 360 414 34,900 540 Climbing Toronto Center
06:03PM 43.2667 -79.1500 270° West 370 426 35,500 540 Climbing Toronto Center
06:04PM 43.2667 -79.2833 270° West 380 437 36,000 240 Climbing Toronto Center
06:05PM 43.2500 -79.4500 262° West 390 449 36,000  Level Toronto Center
06:06PM 43.2500 -79.5833 270° West 400 460 36,000  Level Toronto Center
06:07PM 43.2333 -79.7500 262° West 420 483 36,000  Level Toronto Center
06:08PM 43.2333 -79.9000 270° West 410 472 36,000  Level Toronto Center
06:09PM 43.2167 -80.0667 262° West 410 472 36,000  Level Toronto Center
06:10PM 43.2167 -80.2000 270° West 400 460 36,000  Level Toronto Center
06:11PM 43.2000 -80.3667 262° West 400 460 36,000  Level Toronto Center
06:12PM 43.2000 -80.5167 270° West 390 449 36,000  Level Toronto Center
06:13PM 43.1833 -80.6667 261° West 390 449 36,000  Level Toronto Center
06:14PM 43.1667 -80.8167 261° West 380 437 36,000  Level Toronto Center
06:15PM 43.1500 -80.9667 261° West 380 437 36,000  Level Toronto Center
06:16PM 43.1500 -81.1000 270° West 380 437 36,000  Level Toronto Center
06:17PM 43.1333 -81.2333 260° West 380 437 36,000  Level Toronto Center
06:18PM 43.1333 -81.4000 270° West 380 437 36,000  Level Toronto Center
06:19PM 43.1333 -81.5333 270° West 370 426 36,000  Level Toronto Center
06:20PM 43.1167 -81.6667 260° West 370 426 36,000  Level Toronto Center
06:21PM 43.1167 -81.8000 270° West 370 426 36,000  Level Toronto Center
06:22PM 43.0833 -81.9667 255° West 370 426 36,000  Level Toronto Center
06:23PM 43.0833 -82.1000 270° West 370 426 36,000  Level Toronto Center
06:24PM 43.0667 -82.2333 260° West 370 426 36,000  Level Toronto Center
06:25PM 43.0667 -82.3667 270° West 380 437 36,000  Level Toronto Center
06:26PM 43.0667 -82.5167 270° West 380 437 36,000  Level Toronto Center
06:27PM 43.0333 -82.6667 253° West 380 437 36,000  Level Toronto Center
06:28PM 43.0472 -82.7825 279° West 379 436 36,000  Level Cleveland Center
06:29PM 43.0356 -82.9267 264° West 381 438 36,000  Level Cleveland Center
06:30PM 43.0244 -83.0711 264° West 384 442 36,000  Level Cleveland Center
06:31PM 43.0111 -83.2161 263° West 385 443 36,000  Level Cleveland Center
06:32PM 43.0000 -83.3633 264° West 390 449 36,000  Level Cleveland Center
06:33PM 42.9842 -83.5389 263° West 390 449 36,000  Level Cleveland Center
06:34PM 42.9722 -83.6853 264° West 391 450 36,000  Level Cleveland Center
06:35PM 42.9597 -83.8322 263° West 391 450 36,000  Level Cleveland Center
06:36PM 42.9444 -83.9764 262° West 391 450 36,000 -120 Level Cleveland Center
06:37PM 42.9317 -84.1192 263° West 386 444 35,800 -780 Descending Cleveland Center
06:38PM 42.9147 -84.2800 262° West 361 415 34,500 -1,140 Descending Cleveland Center
06:39PM 42.9031 -84.4022 263° West 343 395 33,500 -1,080 Descending Chicago Center
06:40PM 42.8889 -84.5336 262° West 350 403 32,400 -780 Descending Chicago Center
06:41PM 42.8744 -84.6697 262° West 363 418 32,000 -240 Descending Chicago Center
06:42PM 42.8611 -84.8069 262° West 366 421 32,000  Level Chicago Center
06:44PM 42.8467 -84.9428 262° West 363 418 32,000  Level Chicago Center
06:45PM 42.8294 -85.1047 262° West 362 417 32,000  Level Chicago Center
06:46PM 42.8150 -85.2406 262° West 363 418 32,000  Level Chicago Center
06:47PM 42.8003 -85.3769 262° West 364 419 32,000 -600 Level Chicago Center
06:48PM 42.7836 -85.5156 261° West 370 426 30,800 -1,560 Descending Chicago Center
06:49PM 42.7594 -85.6475 256° West 361 415 28,800 -2,040 Descending Chicago Center
06:50PM 42.7353 -85.7875 257° West 372 428 26,700 -2,040 Descending Chicago Center
06:51PM 42.7075 -85.9358 256° West 395 455 24,600 -2,280 Descending Chicago Center
06:52PM 42.6756 -86.1103 256° West 395 455 22,000 -2,220 Descending Chicago Center
06:53PM 42.6506 -86.2489 256° West 376 433 20,100 -960 Descending Chicago Center
06:54PM 42.6250 -86.3767 255° West 359 413 20,000 -60 Descending Chicago Center
06:55PM 42.6006 -86.5153 257° West 373 429 20,000 -1,020 Level Chicago Center
06:56PM 42.5744 -86.6447 255° West 359 413 17,900 -2,280 Descending Chicago Center
06:57PM 42.5500 -86.7703 255° West 347 399 15,400 -2,760 Descending Chicago Center
06:58PM 42.5100 -86.9125 249° West 338 389 12,300 -2,460 Descending Chicago Center
06:59PM 42.4808 -87.0219 250° West 314 361 10,400 -1,320 Descending Chicago Center
07:00PM 42.4550 -87.1128 249° West 262 302 9,600 -720 Descending Chicago Center
07:01PM 42.4292 -87.1978 248° West 247 284 9,000 -300 Descending Chicago Center
07:02PM 42.3539 -87.2142 189° South 292 336 9,000 -480 Level Chicago Center
07:03PM 42.2586 -87.2139 180° South 293 337 8,000 -960 Descending Chicago Center
07:04PM 42.1736 -87.2117 179° South 286 329 7,000 -540 Descending Chicago Center
07:05PM 42.0953 -87.2114 180° South 283 326 7,000  Level Chicago Center
07:06PM 42.0150 -87.2103 179° South 288 331 7,000  Level Chicago Center
07:07PM 41.9781 -87.2911 238° Southwest 231 266 7,000  Level Chicago Center
07:08PM 41.9836 -87.3622 276° West 192 221 7,000  Level Chicago Center
07:09PM 41.9814 -87.4417 268° West 198 228 7,000 -240 Level Chicago Center
07:10PM 41.9831 -87.5050 272° West 170 196 6,600 -780 Descending Chicago Center
07:11PM 41.9828 -87.5728 270° West 169 194 5,500 -1,020 Descending Chicago Center
07:12PM 41.9833 -87.6333 271° West 163 188 4,600 -900 Descending Chicago TRACON
07:13PM 41.9833 -87.7000 270° West 158 182 3,700 -900 Descending Chicago TRACON
07:14PM 41.9833 -87.7500 270° West 161 185 2,800 -960 Descending Chicago TRACON
07:15PM 41.9833 -87.8000 270° West 156 180 1,900 -840 Descending Chicago TRACON
07:16PM 41.9833 -87.8500 270° West 127 146 1,200 -720 Descending Chicago TRACON